Time;durP1;ratioP1;P1;durP2;ratioP2;P2;SDS_P1;SDS_P2;PMS_P1;PMS_P2;Temp;Humidity;BMP_temperature;BMP_pressure;BME280_temperature;BME280_humidity;BME280_pressure;Samples;Min_cycle;Max_cycle;Signal;HPM_P1;HPM_P2
2022/10/02 00:00:45;;;;;;;0.30;0.30;;;13.40;99.90;;;;;;5016678;28;20878;-68
2022/10/02 00:03:35;;;;;;;1.00;1.00;;;13.40;99.90;;;;;;5016047;28;20577;-70
2022/10/02 00:06:12;;;;;;;0.40;0.40;;;13.40;99.90;;;;;;5015735;28;20419;-69
2022/10/02 00:08:40;;;;;;;0.30;0.30;;;13.30;99.90;;;;;;5016114;28;20789;-69
2022/10/02 00:11:18;;;;;;;0.40;0.40;;;13.30;99.90;;;;;;5015508;28;20403;-69
2022/10/02 00:13:51;;;;;;;0.50;0.40;;;13.30;99.90;;;;;;5015967;28;20454;-70
2022/10/02 00:16:40;;;;;;;0.40;0.40;;;13.30;99.90;;;;;;5016284;28;20442;-68
2022/10/02 00:19:10;;;;;;;0.50;0.40;;;13.40;99.90;;;;;;5015177;28;20398;-70
2022/10/02 00:21:44;;;;;;;0.40;0.40;;;13.50;99.90;;;;;;5015454;28;20477;-70
2022/10/02 00:24:16;;;;;;;0.40;0.40;;;13.30;99.90;;;;;;5015564;28;20492;-69
2022/10/02 00:27:04;;;;;;;0.30;0.30;;;13.40;99.90;;;;;;5015761;28;20489;-70
2022/10/02 00:29:30;;;;;;;0.40;0.40;;;;;;;;;;5015235;28;20540;-70
2022/10/02 00:32:13;;;;;;;0.30;0.30;;;13.20;99.90;;;;;;5015243;28;20389;-71
2022/10/02 00:35:03;;;;;;;0.40;0.40;;;13.10;99.90;;;;;;5015382;28;20920;-71
2022/10/02 00:37:37;;;;;;;0.50;0.50;;;13.20;99.90;;;;;;5015490;28;20389;-68
2022/10/02 00:40:32;;;;;;;0.53;0.50;;;13.20;99.90;;;;;;5014842;28;20414;-71
2022/10/02 00:43:04;;;;;;;0.40;0.40;;;13.30;99.90;;;;;;5015306;28;20410;-68
2022/10/02 00:45:35;;;;;;;0.40;0.40;;;13.30;99.90;;;;;;5014748;28;20516;-70
2022/10/02 00:48:15;;;;;;;0.77;0.50;;;13.30;99.90;;;;;;5015014;28;20422;-70
2022/10/02 00:51:00;;;;;;;0.30;0.30;;;13.30;99.90;;;;;;5014759;28;20390;-68
2022/10/02 00:53:44;;;;;;;0.30;0.30;;;13.40;99.90;;;;;;5015089;28;20402;-70
2022/10/02 00:56:38;;;;;;;0.30;0.30;;;13.40;99.90;;;;;;5015182;28;20425;-68
2022/10/02 00:59:30;;;;;;;0.30;0.30;;;13.40;99.90;;;;;;5014536;28;20395;-70
2022/10/02 01:02:40;;;;;;;0.30;0.30;;;13.40;99.90;;;;;;5015108;28;20397;-69
2022/10/02 01:05:08;;;;;;;0.50;0.50;;;13.30;99.90;;;;;;5014305;28;20512;-69
2022/10/02 01:07:40;;;;;;;0.47;0.47;;;13.30;99.90;;;;;;5014831;28;20398;-71
2022/10/02 01:10:07;;;;;;;0.40;0.40;;;13.20;99.90;;;;;;5014616;28;20402;-69
2022/10/02 01:12:33;;;;;;;0.40;0.40;;;13.20;99.90;;;;;;5014871;28;20791;-69
2022/10/02 01:14:59;;;;;;;0.50;0.50;;;13.20;99.90;;;;;;5014676;28;20453;-68
2022/10/02 01:17:32;;;;;;;0.30;0.30;;;13.20;99.90;;;;;;5014741;28;20441;-70
2022/10/02 01:20:00;;;;;;;0.40;0.40;;;13.20;99.90;;;;;;5014553;28;20211;-69
2022/10/02 01:22:40;;;;;;;0.50;0.50;;;13.20;99.90;;;;;;5014584;28;20450;-69
2022/10/02 01:25:07;;;;;;;0.40;0.40;;;13.20;99.90;;;;;;5014667;28;20457;-71
2022/10/02 01:27:33;;;;;;;0.30;0.30;;;13.20;99.90;;;;;;5014604;28;20461;-71
2022/10/02 01:30:09;;;;;;;0.30;0.30;;;13.20;99.90;;;;;;5013967;28;20428;-69
2022/10/02 01:32:41;;;;;;;0.40;0.40;;;13.30;99.90;;;;;;5014265;28;20411;-69
2022/10/02 01:35:08;;;;;;;0.40;0.40;;;13.40;99.90;;;;;;5014235;28;20433;-69
2022/10/02 01:37:38;;;;;;;0.50;0.50;;;13.30;99.90;;;;;;5014623;28;20468;-70
2022/10/02 01:40:09;;;;;;;0.43;0.43;;;13.20;99.90;;;;;;5014064;28;20486;-71
2022/10/02 01:42:38;;;;;;;0.50;0.40;;;13.20;99.90;;;;;;5013949;28;20414;-69
2022/10/02 01:45:05;;;;;;;0.30;0.30;;;13.20;99.90;;;;;;5013809;28;20446;-71
2022/10/02 01:47:49;;;;;;;0.30;0.30;;;13.20;99.90;;;;;;5014307;28;20445;-69
2022/10/02 01:50:32;;;;;;;0.30;0.30;;;13.20;99.90;;;;;;5012564;28;20410;-71
2022/10/02 01:53:25;;;;;;;0.50;0.50;;;13.10;99.90;;;;;;5014196;28;20423;-71
2022/10/02 01:55:50;;;;;;;0.30;0.30;;;13.20;99.90;;;;;;5014135;28;20431;-70
2022/10/02 01:58:34;;;;;;;0.40;0.40;;;13.20;99.90;;;;;;5014010;28;20405;-70
2022/10/02 02:01:04;;;;;;;0.40;0.40;;;13.10;99.90;;;;;;5013627;28;20185;-68
2022/10/02 02:03:39;;;;;;;0.40;0.40;;;13.10;99.90;;;;;;5014088;28;20966;-70
2022/10/02 02:06:28;;;;;;;0.97;0.97;;;13.10;99.90;;;;;;5014091;28;20428;-68
2022/10/02 02:09:13;;;;;;;0.43;0.40;;;13.30;99.90;;;;;;5014067;28;20486;-68
2022/10/02 02:11:56;;;;;;;0.30;0.30;;;13.30;99.90;;;;;;5014114;28;20406;-69
2022/10/02 02:14:30;;;;;;;0.37;0.37;;;13.60;99.90;;;;;;5013983;28;20768;-69
2022/10/02 02:17:13;;;;;;;0.30;0.30;;;13.40;99.90;;;;;;5014126;28;20379;-69
2022/10/02 02:19:49;;;;;;;0.47;0.47;;;13.40;99.90;;;;;;5013753;28;20415;-71
2022/10/02 02:22:29;;;;;;;0.50;0.50;;;13.40;99.90;;;;;;5013821;28;20433;-70
2022/10/02 02:25:04;;;;;;;0.30;0.30;;;13.50;99.90;;;;;;5013769;28;20528;-70
2022/10/02 02:27:36;;;;;;;0.50;0.50;;;13.50;99.90;;;;;;5014422;28;20388;-70
2022/10/02 02:30:06;;;;;;;2.77;0.70;;;13.50;99.90;;;;;;5013396;28;20969;-71
2022/10/02 02:32:36;;;;;;;0.30;0.30;;;13.50;99.90;;;;;;5013352;28;20407;-69
2022/10/02 02:35:26;;;;;;;0.43;0.43;;;13.40;99.90;;;;;;5013708;28;20433;-70
2022/10/02 02:37:56;;;;;;;0.40;0.40;;;13.50;99.90;;;;;;5013929;28;20460;-70
2022/10/02 02:40:27;;;;;;;0.30;0.30;;;13.60;99.90;;;;;;5013223;28;20404;-68
2022/10/02 02:43:04;;;;;;;0.30;0.30;;;13.60;99.90;;;;;;5013784;28;20452;-69
2022/10/02 02:45:53;;;;;;;0.50;0.50;;;13.60;99.90;;;;;;5013465;28;20471;-70
2022/10/02 02:48:33;;;;;;;0.70;0.70;;;13.70;99.90;;;;;;5013680;28;20414;-69
2022/10/02 02:51:06;;;;;;;1.23;1.23;;;13.60;99.90;;;;;;5013085;28;20423;-70
2022/10/02 02:53:36;;;;;;;2.27;2.17;;;13.70;99.90;;;;;;5012165;28;20903;-70
2022/10/02 02:56:04;;;;;;;0.50;0.50;;;13.70;99.90;;;;;;5013474;28;20434;-71
2022/10/02 02:58:42;;;;;;;0.40;0.40;;;13.70;99.90;;;;;;5013598;28;20425;-70
2022/10/02 03:01:08;;;;;;;0.50;0.50;;;13.70;99.90;;;;;;5013655;28;20406;-69
2022/10/02 03:03:33;;;;;;;0.50;0.50;;;13.70;99.90;;;;;;5013289;28;20449;-69
2022/10/02 03:06:20;;;;;;;0.40;0.40;;;13.70;99.90;;;;;;5013269;28;20214;-71
2022/10/02 03:08:50;;;;;;;0.40;0.40;;;13.70;99.90;;;;;;5013380;28;20667;-69
2022/10/02 03:11:52;;;;;;;0.50;0.40;;;13.60;99.90;;;;;;5015691;28;20787;-69
2022/10/02 03:14:39;;;;;;;0.40;0.40;;;13.80;99.90;;;;;;5016307;28;20963;-70
2022/10/02 03:17:35;;;;;;;0.30;0.30;;;13.70;99.90;;;;;;5017071;28;20390;-68
2022/10/02 03:20:38;;;;;;;0.30;0.30;;;13.60;99.90;;;;;;5016471;28;20408;-68
2022/10/02 03:23:26;;;;;;;0.40;0.40;;;13.60;99.90;;;;;;5015273;28;20467;-71
2022/10/02 03:26:04;;;;;;;0.30;0.30;;;13.60;99.90;;;;;;5016818;28;20453;-71
2022/10/02 03:28:37;;;;;;;0.30;0.30;;;13.70;99.90;;;;;;5016951;28;20402;-68
2022/10/02 03:31:04;;;;;;;0.60;0.60;;;13.70;99.90;;;;;;5015073;28;20417;-67
2022/10/02 03:33:31;;;;;;;0.50;0.50;;;13.70;99.90;;;;;;5016482;28;20424;-71
2022/10/02 03:35:58;;;;;;;0.40;0.40;;;13.70;99.90;;;;;;5016680;28;20425;-71
2022/10/02 03:38:24;;;;;;;0.30;0.30;;;13.80;99.90;;;;;;5016620;28;20398;-68
2022/10/02 03:40:53;;;;;;;0.30;0.30;;;13.70;99.90;;;;;;5015825;28;20398;-70
2022/10/02 03:43:23;;;;;;;0.30;0.30;;;13.80;99.90;;;;;;5015996;28;20416;-68
2022/10/02 03:45:48;;;;;;;1.00;0.80;;;13.90;99.90;;;;;;5015940;28;20460;-70
2022/10/02 03:48:14;;;;;;;0.30;0.30;;;14.00;99.90;;;;;;5016290;28;20414;-69
2022/10/02 03:50:40;;;;;;;0.83;0.80;;;13.90;99.90;;;;;;5016205;28;20202;-70
2022/10/02 03:53:12;;;;;;;0.30;0.30;;;13.80;99.90;;;;;;5016259;28;20882;-68
2022/10/02 03:55:42;;;;;;;0.50;0.50;;;13.70;99.90;;;;;;5015887;28;20198;-70
2022/10/02 03:58:14;;;;;;;1.07;1.07;;;13.70;99.90;;;;;;5015894;28;20406;-69
2022/10/02 04:01:32;;;;;;;0.30;0.30;;;13.70;99.90;;;;;;5015659;28;20433;-68
2022/10/02 04:04:23;;;;;;;0.30;0.30;;;13.70;99.90;;;;;;4992992;28;20462;-68
2022/10/02 04:07:05;;;;;;;0.30;0.30;;;13.60;99.90;;;;;;5010316;28;20454;-71
2022/10/02 04:09:33;;;;;;;0.50;0.50;;;13.50;99.90;;;;;;5015422;28;20414;-69
2022/10/02 04:12:07;;;;;;;0.30;0.30;;;13.50;99.90;;;;;;5016128;28;20398;-69
2022/10/02 04:14:46;;;;;;;0.63;0.63;;;13.50;99.90;;;;;;5016089;28;20842;-70
2022/10/02 04:17:14;;;;;;;0.40;0.40;;;13.40;99.90;;;;;;5015857;28;20394;-69
2022/10/02 04:19:55;;;;;;;1.03;0.50;;;13.50;99.90;;;;;;5015412;28;20774;-70
2022/10/02 04:22:29;;;;;;;0.30;0.30;;;13.50;99.90;;;;;;5015335;28;20496;-71
2022/10/02 04:25:17;;;;;;;0.30;0.30;;;13.50;99.90;;;;;;5015582;28;20526;-71
2022/10/02 04:27:46;;;;;;;0.70;0.70;;;13.60;99.90;;;;;;5014629;28;20403;-68
2022/10/02 04:30:16;;;;;;;0.40;0.40;;;13.70;99.90;;;;;;5015109;28;20401;-69
2022/10/02 04:32:42;;;;;;;0.40;0.40;;;13.80;99.90;;;;;;5015587;28;20752;-71
2022/10/02 04:35:37;;;;;;;6.80;0.80;;;13.80;99.90;;;;;;5015658;28;20437;-69
2022/10/02 04:38:48;;;;;;;0.40;0.40;;;13.80;99.90;;;;;;5014899;28;20469;-69
2022/10/02 04:41:26;;;;;;;0.50;0.50;;;13.80;99.90;;;;;;4974416;28;20764;-70
2022/10/02 04:44:00;;;;;;;0.30;0.30;;;13.70;99.90;;;;;;4973618;28;20909;-71
2022/10/02 04:46:38;;;;;;;0.67;0.67;;;13.70;99.90;;;;;;4999424;28;20457;-71
2022/10/02 04:49:22;;;;;;;0.50;0.50;;;13.80;99.90;;;;;;5013622;28;20926;-72
2022/10/02 04:52:27;;;;;;;0.40;0.40;;;13.80;99.90;;;;;;5013400;28;20934;-70
2022/10/02 04:55:11;;;;;;;1.07;1.07;;;13.90;99.90;;;;;;5013813;28;20464;-71
2022/10/02 04:58:27;;;;;;;0.77;0.73;;;14.00;99.90;;;;;;5015049;28;20452;-70
2022/10/02 05:01:19;;;;;;;0.60;0.60;;;14.10;99.90;;;;;;4997255;28;20414;-72
2022/10/02 05:04:20;;;;;;;0.30;0.30;;;14.00;99.90;;;;;;5014798;28;20450;-70
2022/10/02 05:07:24;;;;;;;8.17;0.80;;;14.00;99.90;;;;;;5014656;28;20406;-70
2022/10/02 05:10:15;;;;;;;0.43;0.40;;;14.10;99.90;;;;;;5012769;28;20906;-68
2022/10/02 05:13:07;;;;;;;0.30;0.30;;;14.10;99.90;;;;;;5013539;28;20414;-69
2022/10/02 05:15:59;;;;;;;0.60;0.57;;;14.10;99.90;;;;;;5014200;28;20434;-68
2022/10/02 05:18:43;;;;;;;0.40;0.40;;;14.10;99.90;;;;;;5015075;28;20410;-69
2022/10/02 05:21:27;;;;;;;0.50;0.50;;;14.30;99.90;;;;;;5012331;28;20416;-69
2022/10/02 05:23:59;;;;;;;2.83;0.70;;;14.10;99.90;;;;;;5012771;28;20463;-69
2022/10/02 05:27:03;;;;;;;0.30;0.30;;;14.10;99.90;;;;;;5014476;28;20430;-70
2022/10/02 05:29:47;;;;;;;0.50;0.50;;;14.00;99.90;;;;;;5014391;28;20406;-70
2022/10/02 05:32:21;;;;;;;0.70;0.70;;;14.10;99.90;;;;;;5012405;28;20894;-70
2022/10/02 05:35:13;;;;;;;0.40;0.40;;;14.00;99.90;;;;;;5013231;28;20472;-70
2022/10/02 05:38:05;;;;;;;0.50;0.50;;;14.10;99.90;;;;;;5013405;28;20456;-69
2022/10/02 05:40:56;;;;;;;0.40;0.40;;;14.10;99.90;;;;;;5011739;28;20413;-71
2022/10/02 05:43:28;;;;;;;0.30;0.30;;;14.00;99.90;;;;;;5013683;28;20406;-70
2022/10/02 05:46:00;;;;;;;1.03;1.03;;;14.10;99.90;;;;;;5011905;28;20421;-71
2022/10/02 05:48:51;;;;;;;1.23;1.23;;;14.30;99.90;;;;;;5012845;28;20434;-70
2022/10/02 05:51:40;;;;;;;0.50;0.50;;;14.20;99.90;;;;;;5012435;28;20926;-70
2022/10/02 05:54:33;;;;;;;0.47;0.47;;;14.30;99.90;;;;;;4994733;28;20429;-68
2022/10/02 05:57:15;;;;;;;2.43;0.67;;;14.30;99.90;;;;;;5012493;28;20415;-69
2022/10/02 05:59:53;;;;;;;0.70;0.70;;;14.30;99.90;;;;;;5013292;28;20442;-70
2022/10/02 06:02:26;;;;;;;0.40;0.40;;;14.30;99.90;;;;;;5014344;28;20406;-71
2022/10/02 06:05:34;;;;;;;0.40;0.40;;;14.20;99.90;;;;;;5014234;28;20477;-70
2022/10/02 06:08:02;;;;;;;3.13;0.97;;;14.20;99.90;;;;;;5013858;28;20406;-69
2022/10/02 06:10:34;;;;;;;0.30;0.30;;;14.20;99.90;;;;;;5013629;28;20901;-70
2022/10/02 06:13:17;;;;;;;0.70;0.70;;;14.30;99.90;;;;;;5014089;28;20394;-68
2022/10/02 06:15:50;;;;;;;0.30;0.30;;;14.30;99.90;;;;;;5014005;28;20435;-70
2022/10/02 06:18:23;;;;;;;0.40;0.40;;;14.30;99.90;;;;;;5013955;28;20873;-70
2022/10/02 06:21:06;;;;;;;0.70;0.60;;;14.30;99.90;;;;;;5013935;28;20417;-68
2022/10/02 06:23:42;;;;;;;0.30;0.30;;;14.40;99.90;;;;;;5014013;28;20411;-70
2022/10/02 06:26:24;;;;;;;1.03;0.53;;;14.30;99.90;;;;;;5013915;28;20426;-69
2022/10/02 06:29:06;;;;;;;0.40;0.40;;;14.40;99.90;;;;;;5013765;28;20411;-69
2022/10/02 06:31:45;;;;;;;0.33;0.33;;;14.40;99.90;;;;;;5013621;28;20408;-69
2022/10/02 06:34:12;;;;;;;0.50;0.50;;;14.40;99.90;;;;;;5013471;28;20418;-71
2022/10/02 06:36:57;;;;;;;0.40;0.40;;;14.50;99.90;;;;;;5013833;28;20426;-69
2022/10/02 06:39:35;;;;;;;0.30;0.30;;;14.70;99.90;;;;;;5013469;28;20411;-69
2022/10/02 06:42:12;;;;;;;0.40;0.40;;;14.60;99.90;;;;;;5013400;28;20412;-69
2022/10/02 06:44:52;;;;;;;0.40;0.40;;;14.60;99.90;;;;;;5013168;28;20545;-69
2022/10/02 06:47:52;;;;;;;0.40;0.40;;;14.70;99.90;;;;;;5017239;28;20437;-69
2022/10/02 06:50:40;;;;;;;0.40;0.40;;;14.80;99.90;;;;;;5009743;28;20430;-69
2022/10/02 06:53:10;;;;;;;0.50;0.40;;;14.80;99.90;;;;;;5016613;28;20425;-71
2022/10/02 06:55:58;;;;;;;0.40;0.40;;;14.90;99.90;;;;;;5016050;28;20524;-69
2022/10/02 06:59:07;;;;;;;0.50;0.50;;;14.90;99.90;;;;;;5017215;28;20856;-71
2022/10/02 07:02:06;;;;;;;0.30;0.30;;;15.00;99.90;;;;;;5016714;28;20414;-70
2022/10/02 07:04:54;;;;;;;0.73;0.47;;;15.10;99.90;;;;;;5016294;28;20468;-69
2022/10/02 07:07:57;;;;;;;0.40;0.40;;;15.10;99.90;;;;;;5017395;28;20386;-71
2022/10/02 07:10:43;;;;;;;1.33;1.03;;;15.20;99.90;;;;;;5016367;28;20421;-71
2022/10/02 07:13:54;;;;;;;0.40;0.40;;;15.30;99.90;;;;;;5016888;28;20935;-70
2022/10/02 07:16:26;;;;;;;0.73;0.73;;;15.40;99.90;;;;;;5012457;28;20475;-71
2022/10/02 07:19:21;;;;;;;0.83;0.40;;;15.40;99.90;;;;;;5016348;28;20446;-69
2022/10/02 07:21:56;;;;;;;0.60;0.60;;;15.40;99.90;;;;;;5008284;28;20429;-71
2022/10/02 07:24:49;;;;;;;0.60;0.60;;;15.10;99.90;;;;;;5016452;28;20468;-69
2022/10/02 07:27:20;;;;;;;0.43;0.43;;;15.30;99.90;;;;;;5016739;28;20442;-71
2022/10/02 07:30:05;;;;;;;0.30;0.30;;;15.40;99.90;;;;;;5016302;28;20409;-70
2022/10/02 07:32:34;;;;;;;0.40;0.40;;;15.40;99.90;;;;;;5016690;28;20408;-70
2022/10/02 07:35:18;;;;;;;0.30;0.30;;;15.40;99.90;;;;;;5016486;28;20485;-71
2022/10/02 07:38:22;;;;;;;0.73;0.53;;;15.40;99.90;;;;;;5015162;28;21009;-71
2022/10/02 07:41:16;;;;;;;0.40;0.40;;;15.40;99.90;;;;;;5016054;28;20418;-71
2022/10/02 07:43:51;;;;;;;0.40;0.40;;;15.40;99.90;;;;;;5016317;28;20897;-71
2022/10/02 07:46:29;;;;;;;0.40;0.40;;;15.40;99.90;;;;;;5016150;28;20525;-70
2022/10/02 07:49:14;;;;;;;0.47;0.47;;;15.40;99.90;;;;;;5015698;28;20410;-70
2022/10/02 07:51:52;;;;;;;2.30;0.70;;;15.40;99.90;;;;;;5013958;28;20424;-69
2022/10/02 07:54:37;;;;;;;1.47;1.33;;;15.50;99.90;;;;;;5015635;28;20416;-69
2022/10/02 07:57:31;;;;;;;0.33;0.33;;;15.40;99.90;;;;;;5015201;28;20426;-69
2022/10/02 08:00:07;;;;;;;0.30;0.30;;;15.40;99.90;;;;;;5012514;28;20418;-70
2022/10/02 08:02:38;;;;;;;0.30;0.30;;;15.40;99.90;;;;;;5012575;28;20773;-70
2022/10/02 08:05:27;;;;;;;0.50;0.50;;;15.40;99.90;;;;;;5014662;28;20470;-70
2022/10/02 08:07:58;;;;;;;0.30;0.30;;;15.40;99.90;;;;;;5014791;28;20831;-71
2022/10/02 08:10:30;;;;;;;0.40;0.40;;;15.30;99.90;;;;;;5014539;28;20418;-70
2022/10/02 08:13:03;;;;;;;0.30;0.30;;;15.30;99.90;;;;;;5014746;28;20885;-71
2022/10/02 08:15:34;;;;;;;0.40;0.40;;;15.40;99.90;;;;;;5015879;28;20426;-70
2022/10/02 08:18:25;;;;;;;0.30;0.30;;;15.40;99.90;;;;;;5016156;28;20395;-70
2022/10/02 08:20:51;;;;;;;0.30;0.30;;;15.50;99.90;;;;;;5015440;28;20423;-70
2022/10/02 08:23:36;;;;;;;0.40;0.40;;;15.50;99.90;;;;;;5015647;28;20416;-71
2022/10/02 08:26:30;;;;;;;0.30;0.30;;;15.60;99.90;;;;;;5015329;28;20517;-72
2022/10/02 08:29:13;;;;;;;0.30;0.30;;;15.80;99.90;;;;;;5014274;28;20395;-71
2022/10/02 08:31:39;;;;;;;0.70;0.70;;;15.90;99.90;;;;;;5015263;28;20402;-71
2022/10/02 08:34:24;;;;;;;0.30;0.30;;;16.10;99.90;;;;;;5015413;28;20405;-70
2022/10/02 08:37:16;;;;;;;0.30;0.30;;;15.90;99.90;;;;;;5015016;28;20156;-71
2022/10/02 08:40:15;;;;;;;0.30;0.30;;;16.00;99.90;;;;;;5015278;28;20398;-69
2022/10/02 08:43:12;;;;;;;0.30;0.30;;;16.10;99.90;;;;;;5015038;28;20402;-70
2022/10/02 08:45:56;;;;;;;0.30;0.30;;;16.30;99.90;;;;;;5014909;28;20540;-71
2022/10/02 08:48:41;;;;;;;0.40;0.40;;;16.30;99.90;;;;;;5014929;28;20501;-71
2022/10/02 08:51:40;;;;;;;0.30;0.30;;;16.30;99.90;;;;;;5014741;28;20497;-70
2022/10/02 08:54:35;;;;;;;0.40;0.40;;;16.40;99.90;;;;;;5014782;28;20434;-69
2022/10/02 08:57:22;;;;;;;0.30;0.30;;;16.30;99.90;;;;;;5014886;28;20903;-69
2022/10/02 09:00:07;;;;;;;0.40;0.40;;;16.30;99.90;;;;;;5014563;28;20765;-71
2022/10/02 09:02:45;;;;;;;0.30;0.30;;;16.50;99.90;;;;;;5014839;28;20413;-71
2022/10/02 09:05:23;;;;;;;0.30;0.30;;;16.50;99.90;;;;;;5014442;28;20507;-70
2022/10/02 09:08:07;;;;;;;0.30;0.30;;;16.60;99.90;;;;;;5014379;28;20491;-70
2022/10/02 09:11:07;;;;;;;0.30;0.30;;;16.70;99.90;;;;;;5014246;28;20426;-72
2022/10/02 09:13:39;;;;;;;0.30;0.30;;;16.80;99.90;;;;;;5014623;28;20403;-71
2022/10/02 09:16:16;;;;;;;0.30;0.30;;;16.90;99.90;;;;;;5014443;28;20453;-70
2022/10/02 09:19:02;;;;;;;0.30;0.30;;;16.80;99.90;;;;;;5014780;28;20426;-70
2022/10/02 09:21:54;;;;;;;0.30;0.30;;;16.80;99.90;;;;;;5014267;28;20902;-70
2022/10/02 09:24:45;;;;;;;0.30;0.30;;;17.10;99.90;;;;;;5014360;28;20528;-71
2022/10/02 09:27:38;;;;;;;2.93;0.97;;;17.00;99.90;;;;;;5014177;28;20435;-71
2022/10/02 09:30:30;;;;;;;0.40;0.40;;;17.00;99.90;;;;;;5014019;28;20452;-71
2022/10/02 09:33:15;;;;;;;0.30;0.30;;;17.00;99.90;;;;;;5014267;28;20402;-71
2022/10/02 09:36:12;;;;;;;0.80;0.80;;;16.90;99.90;;;;;;5014027;28;20437;-70
2022/10/02 09:38:46;;;;;;;0.50;0.43;;;16.90;99.90;;;;;;5013168;28;20824;-70
2022/10/02 09:41:42;;;;;;;0.30;0.30;;;16.70;99.90;;;;;;5013453;28;20420;-71
2022/10/02 09:44:36;;;;;;;2.83;1.60;;;16.70;99.90;;;;;;4977521;28;20550;-71
2022/10/02 09:47:13;;;;;;;0.50;0.50;;;16.60;99.90;;;;;;5014143;28;20496;-70
2022/10/02 09:49:42;;;;;;;0.30;0.30;;;16.60;99.90;;;;;;5014077;28;20406;-71
2022/10/02 09:52:26;;;;;;;0.30;0.30;;;16.50;99.90;;;;;;5013980;28;20517;-69
2022/10/02 09:55:18;;;;;;;0.40;0.40;;;16.50;99.90;;;;;;5014139;28;20426;-69
2022/10/02 09:57:53;;;;;;;0.30;0.30;;;16.50;99.90;;;;;;5014526;28;20891;-69
2022/10/02 10:00:25;;;;;;;0.30;0.30;;;16.40;99.90;;;;;;5013759;28;20828;-72
2022/10/02 10:03:12;;;;;;;0.30;0.30;;;16.20;99.90;;;;;;5014191;28;20741;-71
2022/10/02 10:05:40;;;;;;;0.30;0.30;;;16.20;99.90;;;;;;5012758;28;20466;-71
2022/10/02 10:08:19;;;;;;;0.30;0.30;;;16.30;99.90;;;;;;5014162;28;20488;-71
2022/10/02 10:10:59;;;;;;;0.30;0.30;;;16.40;99.90;;;;;;5013554;28;20402;-70
2022/10/02 10:13:44;;;;;;;0.40;0.40;;;16.50;99.90;;;;;;5013870;28;20416;-72
2022/10/02 10:16:29;;;;;;;0.40;0.40;;;16.60;99.90;;;;;;5013992;28;20504;-70
2022/10/02 10:19:36;;;;;;;0.50;0.50;;;16.80;99.90;;;;;;5014035;28;20394;-71
2022/10/02 10:22:27;;;;;;;0.30;0.30;;;16.70;99.90;;;;;;5017714;28;20472;-71
2022/10/02 10:25:17;;;;;;;0.30;0.30;;;16.90;99.90;;;;;;5017657;28;20480;-70
2022/10/02 10:27:57;;;;;;;1.20;1.10;;;17.00;99.90;;;;;;5016725;28;20405;-70
2022/10/02 10:30:29;;;;;;;0.40;0.40;;;17.00;99.90;;;;;;5016716;28;20430;-71
2022/10/02 10:33:28;;;;;;;0.30;0.30;;;17.10;99.90;;;;;;5014954;28;20410;-71
2022/10/02 10:39:29;;;;;;;0.50;0.40;;;17.20;99.90;;;;;;5016144;28;20926;-70
2022/10/02 10:42:08;;;;;;;0.30;0.30;;;17.30;99.90;;;;;;5017560;28;20777;-71
2022/10/02 10:45:01;;;;;;;0.30;0.30;;;17.30;99.90;;;;;;5015463;28;20457;-70
2022/10/02 10:47:33;;;;;;;0.30;0.30;;;17.10;99.90;;;;;;5016466;28;20501;-71
2022/10/02 10:50:17;;;;;;;0.93;0.87;;;17.00;99.90;;;;;;5017025;28;20485;-69
2022/10/02 10:53:02;;;;;;;0.50;0.50;;;17.00;99.90;;;;;;5017037;28;20403;-69
2022/10/02 10:55:59;;;;;;;0.77;0.50;;;17.00;99.90;;;;;;5017327;28;20458;-70
2022/10/02 10:58:43;;;;;;;0.30;0.30;;;16.90;99.90;;;;;;5017521;28;20422;-70
2022/10/02 11:01:45;;;;;;;0.30;0.30;;;17.10;99.90;;;;;;5016732;28;20441;-69
2022/10/02 11:04:45;;;;;;;0.30;0.30;;;17.40;99.90;;;;;;5017056;28;20449;-70
2022/10/02 11:07:19;;;;;;;0.50;0.50;;;17.70;99.90;;;;;;5016725;28;20426;-70
2022/10/02 11:10:06;;;;;;;0.40;0.40;;;17.90;99.90;;;;;;5016703;28;20771;-69
2022/10/02 11:12:46;;;;;;;0.40;0.40;;;17.90;99.90;;;;;;5016982;28;20447;-70
2022/10/02 11:15:41;;;;;;;0.30;0.30;;;18.00;99.90;;;;;;5016431;28;20488;-71
2022/10/02 11:18:30;;;;;;;0.40;0.40;;;18.20;99.90;;;;;;5017060;28;20434;-69
2022/10/02 11:21:11;;;;;;;0.40;0.40;;;18.40;99.90;;;;;;5016399;28;20407;-70
2022/10/02 11:24:10;;;;;;;0.40;0.40;;;18.70;99.90;;;;;;5016396;28;20417;-70
2022/10/02 11:26:42;;;;;;;0.60;0.60;;;18.80;99.90;;;;;;5015518;28;20927;-72
2022/10/02 11:29:32;;;;;;;0.40;0.40;;;18.80;99.90;;;;;;5016651;28;20409;-71
2022/10/02 11:32:13;;;;;;;0.30;0.30;;;18.60;99.90;;;;;;5016151;28;20444;-71
2022/10/02 11:35:03;;;;;;;0.40;0.40;;;18.60;99.90;;;;;;5016244;28;20427;-69
2022/10/02 11:37:40;;;;;;;0.30;0.30;;;18.70;99.90;;;;;;5016227;28;20422;-70
2022/10/02 11:40:34;;;;;;;0.30;0.30;;;18.60;99.90;;;;;;5015080;28;21046;-71
2022/10/02 11:43:27;;;;;;;0.50;0.50;;;18.50;99.90;;;;;;5014821;28;20433;-71
2022/10/02 11:46:37;;;;;;;0.30;0.30;;;18.30;99.90;;;;;;5015655;28;20544;-71
2022/10/02 11:49:19;;;;;;;0.30;0.30;;;18.10;99.90;;;;;;4974879;28;20427;-71
2022/10/02 11:51:47;;;;;;;0.40;0.40;;;18.00;99.90;;;;;;4974985;28;20909;-71
2022/10/02 11:54:31;;;;;;;0.43;0.43;;;17.90;99.90;;;;;;4999246;28;20769;-71
2022/10/02 11:57:08;;;;;;;0.40;0.40;;;17.90;99.90;;;;;;5016277;28;20398;-72
2022/10/02 11:59:52;;;;;;;0.30;0.30;;;17.90;99.90;;;;;;5015609;28;20409;-71
2022/10/02 12:02:21;;;;;;;0.30;0.30;;;17.90;99.90;;;;;;5015761;28;20831;-72
2022/10/02 12:04:56;;;;;;;0.30;0.30;;;17.70;99.90;;;;;;5015936;28;20807;-71
2022/10/02 12:07:36;;;;;;;0.30;0.30;;;17.70;99.90;;;;;;5016344;28;20414;-70
2022/10/02 12:10:13;;;;;;;0.30;0.30;;;17.70;99.90;;;;;;5015882;28;20775;-72
2022/10/02 12:13:17;;;;;;;0.40;0.40;;;17.80;99.90;;;;;;5015802;28;20489;-70
2022/10/02 12:16:17;;;;;;;0.40;0.40;;;17.80;99.90;;;;;;5015165;28;20473;-68
2022/10/02 12:18:49;;;;;;;0.50;0.50;;;17.90;99.90;;;;;;5015918;28;20418;-70
2022/10/02 12:27:10;;;;;;;0.40;0.30;;;18.00;99.90;;;;;;5015614;28;20518;-69
2022/10/02 12:29:42;;;;;;;0.70;0.70;;;17.90;99.90;;;;;;5015015;28;20879;-71
2022/10/02 12:32:58;;;;;;;0.30;0.30;;;17.90;99.90;;;;;;5013505;28;20422;-70
2022/10/02 12:35:44;;;;;;;0.40;0.40;;;17.90;99.90;;;;;;5014906;28;20437;-68
2022/10/02 12:38:35;;;;;;;0.30;0.30;;;17.90;99.90;;;;;;5015657;28;20483;-69
2022/10/02 12:41:32;;;;;;;0.50;0.50;;;17.90;99.90;;;;;;5015021;28;20407;-68
2022/10/02 12:44:01;;;;;;;0.30;0.30;;;18.00;99.90;;;;;;5013219;28;20460;-69
2022/10/02 12:47:01;;;;;;;0.50;0.50;;;18.00;99.90;;;;;;5013695;28;20589;-71
2022/10/02 12:50:01;;;;;;;0.40;0.40;;;18.10;99.90;;;;;;5014723;28;20417;-69
2022/10/02 12:53:04;;;;;;;0.30;0.30;;;18.00;99.90;;;;;;5015172;28;20403;-69
2022/10/02 12:55:39;;;;;;;0.40;0.40;;;17.90;99.90;;;;;;5015111;28;20434;-70
2022/10/02 12:58:21;;;;;;;0.40;0.40;;;17.70;99.90;;;;;;5014090;28;20409;-71
2022/10/02 13:01:20;;;;;;;0.30;0.30;;;17.50;99.90;;;;;;5013579;28;20435;-68
2022/10/02 13:04:28;;;;;;;0.30;0.30;;;17.40;99.90;;;;;;5014617;28;20418;-69
2022/10/02 13:07:05;;;;;;;0.50;0.47;;;17.40;99.90;;;;;;5015311;28;20714;-69
2022/10/02 13:09:45;;;;;;;0.40;0.40;;;17.30;99.90;;;;;;5013132;28;20967;-69
2022/10/02 13:12:20;;;;;;;1.17;0.50;;;17.10;99.90;;;;;;5014916;28;20473;-69
2022/10/02 13:15:17;;;;;;;0.70;0.70;;;17.10;99.90;;;;;;5014361;28;20429;-71
2022/10/02 13:18:21;;;;;;;0.40;0.40;;;17.10;99.90;;;;;;5015124;28;20860;-71
2022/10/02 13:21:23;;;;;;;0.50;0.40;;;17.00;99.90;;;;;;5014462;28;20505;-71
2022/10/02 13:24:07;;;;;;;0.50;0.50;;;17.00;99.90;;;;;;5014460;28;20497;-71
2022/10/02 13:26:50;;;;;;;0.63;0.63;;;17.10;99.90;;;;;;5014898;28;20438;-70
2022/10/02 13:29:51;;;;;;;0.30;0.30;;;17.20;99.90;;;;;;5012874;28;20413;-71
2022/10/02 13:32:38;;;;;;;0.40;0.40;;;17.30;99.90;;;;;;5012186;28;20430;-69
2022/10/02 13:35:25;;;;;;;0.40;0.40;;;17.30;99.90;;;;;;5013947;28;20452;-69
2022/10/02 13:38:15;;;;;;;0.40;0.40;;;17.10;99.90;;;;;;5013384;28;20438;-67
2022/10/02 13:40:41;;;;;;;0.60;0.60;;;17.00;99.90;;;;;;5013435;28;20449;-68
2022/10/02 13:43:27;;;;;;;0.40;0.40;;;17.00;99.90;;;;;;5014425;28;20806;-68
2022/10/02 13:46:15;;;;;;;0.50;0.50;;;17.10;99.90;;;;;;5013370;28;20238;-70
2022/10/02 13:48:56;;;;;;;0.60;0.50;;;17.30;99.90;;;;;;5014319;28;20433;-70
2022/10/02 13:51:46;;;;;;;0.30;0.30;;;17.30;99.90;;;;;;5013002;28;20402;-69
2022/10/02 13:54:37;;;;;;;0.70;0.70;;;17.40;99.90;;;;;;5013793;28;20782;-68
2022/10/02 13:57:10;;;;;;;0.60;0.40;;;17.30;99.90;;;;;;5012914;28;20826;-69
2022/10/02 14:00:02;;;;;;;0.40;0.40;;;17.10;99.90;;;;;;5013870;28;20552;-71
2022/10/02 14:02:55;;;;;;;0.50;0.50;;;16.90;99.90;;;;;;5013329;28;20448;-70
2022/10/02 14:05:52;;;;;;;0.40;0.40;;;16.90;99.90;;;;;;5014029;28;20457;-71
2022/10/02 14:08:32;;;;;;;0.40;0.40;;;16.90;99.90;;;;;;5013115;28;20413;-69
2022/10/02 14:11:16;;;;;;;0.40;0.40;;;16.70;99.90;;;;;;5013790;28;20391;-71
2022/10/02 14:14:16;;;;;;;0.50;0.50;;;16.70;99.90;;;;;;5014284;28;20483;-71
2022/10/02 14:17:13;;;;;;;0.37;0.37;;;16.60;99.90;;;;;;5014241;28;20421;-68